sensor_id;sensor_type;location;lat;lon;timestamp;temperature;humidity
8979;DHT22;4524;51.364;5.448;2022-12-07T00:01:22;5.90;1.00
8979;DHT22;4524;51.364;5.448;2022-12-07T00:03:51;5.90;1.00
8979;DHT22;4524;51.364;5.448;2022-12-07T00:06:20;5.80;1.00
8979;DHT22;4524;51.364;5.448;2022-12-07T00:08:49;5.80;1.00
8979;DHT22;4524;51.364;5.448;2022-12-07T00:11:19;5.90;1.00
8979;DHT22;4524;51.364;5.448;2022-12-07T00:13:51;5.90;1.00
8979;DHT22;4524;51.364;5.448;2022-12-07T00:16:21;5.90;1.00
8979;DHT22;4524;51.364;5.448;2022-12-07T00:18:50;5.80;1.00
8979;DHT22;4524;51.364;5.448;2022-12-07T00:21:19;5.80;1.00
8979;DHT22;4524;51.364;5.448;2022-12-07T00:23:50;5.70;1.00
8979;DHT22;4524;51.364;5.448;2022-12-07T00:26:20;5.60;1.00
8979;DHT22;4524;51.364;5.448;2022-12-07T00:28:49;5.50;1.00
8979;DHT22;4524;51.364;5.448;2022-12-07T00:31:19;5.50;1.00
8979;DHT22;4524;51.364;5.448;2022-12-07T00:33:47;5.40;1.00
8979;DHT22;4524;51.364;5.448;2022-12-07T00:36:17;5.30;1.00
8979;DHT22;4524;51.364;5.448;2022-12-07T00:38:54;5.30;1.00
8979;DHT22;4524;51.364;5.448;2022-12-07T00:41:23;5.20;1.00
8979;DHT22;4524;51.364;5.448;2022-12-07T00:43:51;5.20;1.00
8979;DHT22;4524;51.364;5.448;2022-12-07T00:46:20;5.20;1.00
8979;DHT22;4524;51.364;5.448;2022-12-07T00:48:51;5.10;1.00
8979;DHT22;4524;51.364;5.448;2022-12-07T00:51:21;5.10;1.00
8979;DHT22;4524;51.364;5.448;2022-12-07T00:53:50;5.10;1.00
8979;DHT22;4524;51.364;5.448;2022-12-07T00:56:21;5.10;1.00
8979;DHT22;4524;51.364;5.448;2022-12-07T00:58:51;5.10;1.00
8979;DHT22;4524;51.364;5.448;2022-12-07T01:01:19;5.00;1.00
8979;DHT22;4524;51.364;5.448;2022-12-07T01:03:47;5.00;1.00
8979;DHT22;4524;51.364;5.448;2022-12-07T01:06:16;5.00;1.00
8979;DHT22;4524;51.364;5.448;2022-12-07T01:08:44;5.10;1.00
8979;DHT22;4524;51.364;5.448;2022-12-07T01:11:14;5.10;1.00
8979;DHT22;4524;51.364;5.448;2022-12-07T01:13:44;5.10;1.00
8979;DHT22;4524;51.364;5.448;2022-12-07T01:16:15;5.10;1.00
8979;DHT22;4524;51.364;5.448;2022-12-07T01:18:45;5.10;1.00
8979;DHT22;4524;51.364;5.448;2022-12-07T01:21:17;5.10;1.00
8979;DHT22;4524;51.364;5.448;2022-12-07T01:23:45;5.10;1.00
8979;DHT22;4524;51.364;5.448;2022-12-07T01:26:16;5.10;1.00
8979;DHT22;4524;51.364;5.448;2022-12-07T01:28:45;5.00;1.00
8979;DHT22;4524;51.364;5.448;2022-12-07T01:31:15;4.90;1.00
8979;DHT22;4524;51.364;5.448;2022-12-07T01:33:46;4.90;1.00
8979;DHT22;4524;51.364;5.448;2022-12-07T01:36:16;4.90;1.00
8979;DHT22;4524;51.364;5.448;2022-12-07T01:38:45;4.90;1.00
8979;DHT22;4524;51.364;5.448;2022-12-07T01:41:14;4.90;1.00
8979;DHT22;4524;51.364;5.448;2022-12-07T01:44:08;4.80;1.00
8979;DHT22;4524;51.364;5.448;2022-12-07T01:46:37;5.00;1.00
8979;DHT22;4524;51.364;5.448;2022-12-07T01:49:07;5.10;1.00
8979;DHT22;4524;51.364;5.448;2022-12-07T01:51:37;5.10;1.00
8979;DHT22;4524;51.364;5.448;2022-12-07T01:54:06;5.10;1.00
8979;DHT22;4524;51.364;5.448;2022-12-07T01:56:34;5.20;99.90
8979;DHT22;4524;51.364;5.448;2022-12-07T01:59:03;5.20;1.00
8979;DHT22;4524;51.364;5.448;2022-12-07T02:01:32;5.30;1.00
8979;DHT22;4524;51.364;5.448;2022-12-07T02:04:01;5.30;99.90
8979;DHT22;4524;51.364;5.448;2022-12-07T02:06:29;5.40;1.00
8979;DHT22;4524;51.364;5.448;2022-12-07T02:08:57;5.40;1.00
8979;DHT22;4524;51.364;5.448;2022-12-07T02:11:25;5.40;1.00
8979;DHT22;4524;51.364;5.448;2022-12-07T02:13:54;5.40;1.00
8979;DHT22;4524;51.364;5.448;2022-12-07T02:16:29;5.30;1.00
8979;DHT22;4524;51.364;5.448;2022-12-07T02:19:14;5.30;1.00
8979;DHT22;4524;51.364;5.448;2022-12-07T02:21:51;5.30;1.00
8979;DHT22;4524;51.364;5.448;2022-12-07T02:24:33;5.40;1.00
8979;DHT22;4524;51.364;5.448;2022-12-07T02:27:20;5.40;99.90
8979;DHT22;4524;51.364;5.448;2022-12-07T02:29:57;5.40;1.00
8979;DHT22;4524;51.364;5.448;2022-12-07T02:32:31;5.40;1.00
8979;DHT22;4524;51.364;5.448;2022-12-07T02:35:09;5.50;1.00
8979;DHT22;4524;51.364;5.448;2022-12-07T02:37:42;5.50;1.00
8979;DHT22;4524;51.364;5.448;2022-12-07T02:40:18;5.60;1.00
8979;DHT22;4524;51.364;5.448;2022-12-07T02:42:50;5.60;1.00
8979;DHT22;4524;51.364;5.448;2022-12-07T02:45:22;5.60;1.00
8979;DHT22;4524;51.364;5.448;2022-12-07T02:47:53;5.50;1.00
8979;DHT22;4524;51.364;5.448;2022-12-07T02:50:26;5.50;1.00
8979;DHT22;4524;51.364;5.448;2022-12-07T02:52:54;5.40;1.00
8979;DHT22;4524;51.364;5.448;2022-12-07T02:55:27;5.30;1.00
8979;DHT22;4524;51.364;5.448;2022-12-07T02:58:13;5.30;1.00
8979;DHT22;4524;51.364;5.448;2022-12-07T03:00:52;5.20;1.00
8979;DHT22;4524;51.364;5.448;2022-12-07T03:03:23;5.10;1.00
8979;DHT22;4524;51.364;5.448;2022-12-07T03:06:06;5.10;1.00
8979;DHT22;4524;51.364;5.448;2022-12-07T03:08:46;5.00;1.00
8979;DHT22;4524;51.364;5.448;2022-12-07T03:11:17;5.00;1.00
8979;DHT22;4524;51.364;5.448;2022-12-07T03:13:53;5.00;1.00
8979;DHT22;4524;51.364;5.448;2022-12-07T03:16:26;5.00;1.00
8979;DHT22;4524;51.364;5.448;2022-12-07T03:18:57;5.10;1.00
8979;DHT22;4524;51.364;5.448;2022-12-07T03:21:27;5.00;1.00
8979;DHT22;4524;51.364;5.448;2022-12-07T03:24:00;5.10;1.00
8979;DHT22;4524;51.364;5.448;2022-12-07T03:26:34;5.10;1.00
8979;DHT22;4524;51.364;5.448;2022-12-07T03:29:05;5.10;1.00
8979;DHT22;4524;51.364;5.448;2022-12-07T03:31:39;5.10;1.00
8979;DHT22;4524;51.364;5.448;2022-12-07T03:34:11;5.00;1.00
8979;DHT22;4524;51.364;5.448;2022-12-07T03:36:47;4.90;1.00
8979;DHT22;4524;51.364;5.448;2022-12-07T03:39:21;4.90;1.00
8979;DHT22;4524;51.364;5.448;2022-12-07T03:41:50;4.80;1.00
8979;DHT22;4524;51.364;5.448;2022-12-07T03:44:20;4.80;1.00
8979;DHT22;4524;51.364;5.448;2022-12-07T03:46:54;4.80;1.00
8979;DHT22;4524;51.364;5.448;2022-12-07T03:49:30;4.90;1.00
8979;DHT22;4524;51.364;5.448;2022-12-07T03:52:04;4.90;1.00
8979;DHT22;4524;51.364;5.448;2022-12-07T03:54:39;4.90;1.00
8979;DHT22;4524;51.364;5.448;2022-12-07T03:57:09;4.90;1.00
8979;DHT22;4524;51.364;5.448;2022-12-07T03:59:39;5.00;1.00
8979;DHT22;4524;51.364;5.448;2022-12-07T04:02:11;5.00;1.00
8979;DHT22;4524;51.364;5.448;2022-12-07T04:04:42;5.00;1.00
8979;DHT22;4524;51.364;5.448;2022-12-07T04:07:10;5.00;1.00
8979;DHT22;4524;51.364;5.448;2022-12-07T04:09:39;5.00;99.90
8979;DHT22;4524;51.364;5.448;2022-12-07T04:12:07;5.00;1.00
8979;DHT22;4524;51.364;5.448;2022-12-07T04:14:35;5.00;1.00
8979;DHT22;4524;51.364;5.448;2022-12-07T04:17:03;5.10;1.00
8979;DHT22;4524;51.364;5.448;2022-12-07T04:19:34;5.20;1.00
8979;DHT22;4524;51.364;5.448;2022-12-07T04:22:03;5.10;1.00
8979;DHT22;4524;51.364;5.448;2022-12-07T04:24:32;5.10;1.00
8979;DHT22;4524;51.364;5.448;2022-12-07T04:27:00;5.20;1.00
8979;DHT22;4524;51.364;5.448;2022-12-07T04:29:28;5.20;1.00
8979;DHT22;4524;51.364;5.448;2022-12-07T04:31:56;5.30;1.00
8979;DHT22;4524;51.364;5.448;2022-12-07T04:34:24;5.30;1.00
8979;DHT22;4524;51.364;5.448;2022-12-07T04:36:53;5.40;1.00
8979;DHT22;4524;51.364;5.448;2022-12-07T04:39:23;5.40;1.00
8979;DHT22;4524;51.364;5.448;2022-12-07T04:41:51;5.40;1.00
8979;DHT22;4524;51.364;5.448;2022-12-07T04:44:20;5.50;1.00
8979;DHT22;4524;51.364;5.448;2022-12-07T04:46:49;5.40;99.90
8979;DHT22;4524;51.364;5.448;2022-12-07T04:49:18;5.50;1.00
8979;DHT22;4524;51.364;5.448;2022-12-07T04:51:47;5.50;1.00
8979;DHT22;4524;51.364;5.448;2022-12-07T04:54:16;5.50;1.00
8979;DHT22;4524;51.364;5.448;2022-12-07T04:56:45;5.60;1.00
8979;DHT22;4524;51.364;5.448;2022-12-07T04:59:14;5.50;1.00
8979;DHT22;4524;51.364;5.448;2022-12-07T05:01:43;5.50;1.00
8979;DHT22;4524;51.364;5.448;2022-12-07T05:04:11;5.60;1.00
8979;DHT22;4524;51.364;5.448;2022-12-07T05:06:39;5.60;1.00
8979;DHT22;4524;51.364;5.448;2022-12-07T05:09:07;5.60;1.00
8979;DHT22;4524;51.364;5.448;2022-12-07T05:11:36;5.60;1.00
8979;DHT22;4524;51.364;5.448;2022-12-07T05:14:11;5.60;1.00
8979;DHT22;4524;51.364;5.448;2022-12-07T05:16:40;5.70;1.00
8979;DHT22;4524;51.364;5.448;2022-12-07T05:19:09;5.60;1.00
8979;DHT22;4524;51.364;5.448;2022-12-07T05:21:38;5.60;1.00
8979;DHT22;4524;51.364;5.448;2022-12-07T05:24:07;5.60;1.00
8979;DHT22;4524;51.364;5.448;2022-12-07T05:26:36;5.60;1.00
8979;DHT22;4524;51.364;5.448;2022-12-07T05:29:04;5.60;1.00
8979;DHT22;4524;51.364;5.448;2022-12-07T05:31:32;5.60;1.00
8979;DHT22;4524;51.364;5.448;2022-12-07T05:34:01;5.60;1.00
8979;DHT22;4524;51.364;5.448;2022-12-07T05:36:28;5.70;1.00
8979;DHT22;4524;51.364;5.448;2022-12-07T05:38:58;5.70;1.00
8979;DHT22;4524;51.364;5.448;2022-12-07T05:41:26;5.80;1.00
8979;DHT22;4524;51.364;5.448;2022-12-07T05:44:13;5.80;1.00
8979;DHT22;4524;51.364;5.448;2022-12-07T05:46:41;5.80;1.00
8979;DHT22;4524;51.364;5.448;2022-12-07T05:49:09;5.70;1.00
8979;DHT22;4524;51.364;5.448;2022-12-07T05:51:37;5.70;1.00
8979;DHT22;4524;51.364;5.448;2022-12-07T05:54:05;5.60;1.00
8979;DHT22;4524;51.364;5.448;2022-12-07T05:56:33;5.50;1.00
8979;DHT22;4524;51.364;5.448;2022-12-07T05:59:01;5.50;1.00
8979;DHT22;4524;51.364;5.448;2022-12-07T06:01:48;5.40;1.00
8979;DHT22;4524;51.364;5.448;2022-12-07T06:04:16;5.30;1.00
8979;DHT22;4524;51.364;5.448;2022-12-07T06:06:44;5.30;1.00
8979;DHT22;4524;51.364;5.448;2022-12-07T06:09:13;5.20;1.00
8979;DHT22;4524;51.364;5.448;2022-12-07T06:11:41;5.20;1.00
8979;DHT22;4524;51.364;5.448;2022-12-07T06:14:26;5.10;1.00
8979;DHT22;4524;51.364;5.448;2022-12-07T06:16:56;5.20;1.00
8979;DHT22;4524;51.364;5.448;2022-12-07T06:19:24;5.20;1.00
8979;DHT22;4524;51.364;5.448;2022-12-07T06:21:52;5.20;1.00
8979;DHT22;4524;51.364;5.448;2022-12-07T06:24:20;5.20;1.00
8979;DHT22;4524;51.364;5.448;2022-12-07T06:26:48;5.10;1.00
8979;DHT22;4524;51.364;5.448;2022-12-07T06:29:17;5.10;1.00
8979;DHT22;4524;51.364;5.448;2022-12-07T06:31:46;5.10;1.00
8979;DHT22;4524;51.364;5.448;2022-12-07T06:34:17;5.10;1.00
8979;DHT22;4524;51.364;5.448;2022-12-07T06:36:46;5.10;1.00
8979;DHT22;4524;51.364;5.448;2022-12-07T06:39:18;5.00;1.00
8979;DHT22;4524;51.364;5.448;2022-12-07T06:41:46;5.00;1.00
8979;DHT22;4524;51.364;5.448;2022-12-07T06:44:14;4.90;1.00
8979;DHT22;4524;51.364;5.448;2022-12-07T06:46:42;4.90;1.00
8979;DHT22;4524;51.364;5.448;2022-12-07T06:49:10;4.90;1.00
8979;DHT22;4524;51.364;5.448;2022-12-07T06:51:39;4.80;1.00
8979;DHT22;4524;51.364;5.448;2022-12-07T06:54:09;4.70;1.00
8979;DHT22;4524;51.364;5.448;2022-12-07T06:56:37;4.70;1.00
8979;DHT22;4524;51.364;5.448;2022-12-07T06:59:06;4.60;1.00
8979;DHT22;4524;51.364;5.448;2022-12-07T07:01:35;4.60;1.00
8979;DHT22;4524;51.364;5.448;2022-12-07T07:04:03;4.70;1.00
8979;DHT22;4524;51.364;5.448;2022-12-07T07:06:31;4.60;1.00
8979;DHT22;4524;51.364;5.448;2022-12-07T07:09:01;4.80;1.00
8979;DHT22;4524;51.364;5.448;2022-12-07T07:11:29;4.70;1.00
8979;DHT22;4524;51.364;5.448;2022-12-07T07:13:57;4.60;1.00
8979;DHT22;4524;51.364;5.448;2022-12-07T07:16:29;4.70;1.00
8979;DHT22;4524;51.364;5.448;2022-12-07T07:18:57;4.70;1.00
8979;DHT22;4524;51.364;5.448;2022-12-07T07:21:25;4.80;1.00
8979;DHT22;4524;51.364;5.448;2022-12-07T07:23:53;4.90;1.00
8979;DHT22;4524;51.364;5.448;2022-12-07T07:26:22;4.80;99.90
8979;DHT22;4524;51.364;5.448;2022-12-07T07:28:50;4.80;99.90
8979;DHT22;4524;51.364;5.448;2022-12-07T07:31:18;4.70;99.90
8979;DHT22;4524;51.364;5.448;2022-12-07T07:33:47;4.80;1.00
8979;DHT22;4524;51.364;5.448;2022-12-07T07:36:15;4.80;99.90
8979;DHT22;4524;51.364;5.448;2022-12-07T07:38:43;4.80;1.00
8979;DHT22;4524;51.364;5.448;2022-12-07T07:41:10;4.70;1.00
8979;DHT22;4524;51.364;5.448;2022-12-07T07:43:40;4.80;99.90
8979;DHT22;4524;51.364;5.448;2022-12-07T07:46:08;4.70;1.00
8979;DHT22;4524;51.364;5.448;2022-12-07T07:48:36;4.70;99.90
8979;DHT22;4524;51.364;5.448;2022-12-07T07:51:05;4.60;1.00
8979;DHT22;4524;51.364;5.448;2022-12-07T07:53:34;4.60;1.00
8979;DHT22;4524;51.364;5.448;2022-12-07T07:56:02;4.60;1.00
8979;DHT22;4524;51.364;5.448;2022-12-07T07:58:30;4.60;1.00
8979;DHT22;4524;51.364;5.448;2022-12-07T08:01:05;4.70;99.90
8979;DHT22;4524;51.364;5.448;2022-12-07T08:03:34;4.70;1.00
8979;DHT22;4524;51.364;5.448;2022-12-07T08:06:02;4.80;1.00
8979;DHT22;4524;51.364;5.448;2022-12-07T08:08:30;4.90;99.90
8979;DHT22;4524;51.364;5.448;2022-12-07T08:10:58;4.90;99.90
8979;DHT22;4524;51.364;5.448;2022-12-07T08:13:27;4.90;99.90
8979;DHT22;4524;51.364;5.448;2022-12-07T08:15:57;4.90;99.90
8979;DHT22;4524;51.364;5.448;2022-12-07T08:18:27;5.00;99.90
8979;DHT22;4524;51.364;5.448;2022-12-07T08:20:59;5.10;99.90
8979;DHT22;4524;51.364;5.448;2022-12-07T08:23:28;5.10;99.90
8979;DHT22;4524;51.364;5.448;2022-12-07T08:26:12;5.20;99.90
8979;DHT22;4524;51.364;5.448;2022-12-07T08:28:41;5.10;99.90
8979;DHT22;4524;51.364;5.448;2022-12-07T08:31:12;5.10;99.90
8979;DHT22;4524;51.364;5.448;2022-12-07T08:33:42;5.20;99.90
8979;DHT22;4524;51.364;5.448;2022-12-07T08:36:12;5.10;99.90
8979;DHT22;4524;51.364;5.448;2022-12-07T08:38:41;5.10;99.90
8979;DHT22;4524;51.364;5.448;2022-12-07T08:41:29;5.20;99.90
8979;DHT22;4524;51.364;5.448;2022-12-07T08:43:57;5.30;99.90
8979;DHT22;4524;51.364;5.448;2022-12-07T08:46:27;5.50;99.90
8979;DHT22;4524;51.364;5.448;2022-12-07T08:49:05;5.80;99.90
8979;DHT22;4524;51.364;5.448;2022-12-07T08:51:36;5.80;99.90
8979;DHT22;4524;51.364;5.448;2022-12-07T08:54:07;5.80;99.90
8979;DHT22;4524;51.364;5.448;2022-12-07T08:56:36;5.90;99.90
8979;DHT22;4524;51.364;5.448;2022-12-07T08:59:05;5.90;99.90
8979;DHT22;4524;51.364;5.448;2022-12-07T09:01:33;6.00;99.90
8979;DHT22;4524;51.364;5.448;2022-12-07T09:04:03;5.90;99.90
8979;DHT22;4524;51.364;5.448;2022-12-07T09:06:31;6.00;99.90
8979;DHT22;4524;51.364;5.448;2022-12-07T09:09:00;6.10;99.90
8979;DHT22;4524;51.364;5.448;2022-12-07T09:11:29;6.20;99.90
8979;DHT22;4524;51.364;5.448;2022-12-07T09:13:57;6.10;99.90
8979;DHT22;4524;51.364;5.448;2022-12-07T09:16:25;6.10;99.90
8979;DHT22;4524;51.364;5.448;2022-12-07T09:18:53;6.20;99.90
8979;DHT22;4524;51.364;5.448;2022-12-07T09:21:22;6.30;99.90
8979;DHT22;4524;51.364;5.448;2022-12-07T09:23:50;6.40;99.90
8979;DHT22;4524;51.364;5.448;2022-12-07T09:26:18;6.40;99.90
8979;DHT22;4524;51.364;5.448;2022-12-07T09:28:46;6.40;99.90
8979;DHT22;4524;51.364;5.448;2022-12-07T09:31:14;6.50;99.90
8979;DHT22;4524;51.364;5.448;2022-12-07T09:33:55;6.50;99.90
8979;DHT22;4524;51.364;5.448;2022-12-07T09:36:24;6.60;99.90
8979;DHT22;4524;51.364;5.448;2022-12-07T09:38:52;6.60;99.90
8979;DHT22;4524;51.364;5.448;2022-12-07T09:41:21;6.70;99.90
8979;DHT22;4524;51.364;5.448;2022-12-07T09:43:50;6.70;99.90
8979;DHT22;4524;51.364;5.448;2022-12-07T09:46:19;6.60;99.90
8979;DHT22;4524;51.364;5.448;2022-12-07T09:48:49;6.50;99.90
8979;DHT22;4524;51.364;5.448;2022-12-07T09:51:20;6.50;99.90
8979;DHT22;4524;51.364;5.448;2022-12-07T09:53:53;6.50;99.90
8979;DHT22;4524;51.364;5.448;2022-12-07T09:56:23;6.50;99.90
8979;DHT22;4524;51.364;5.448;2022-12-07T09:58:57;6.40;99.90
8979;DHT22;4524;51.364;5.448;2022-12-07T10:01:29;6.40;99.90
8979;DHT22;4524;51.364;5.448;2022-12-07T10:04:09;6.30;99.90
8979;DHT22;4524;51.364;5.448;2022-12-07T10:06:38;6.30;99.90
8979;DHT22;4524;51.364;5.448;2022-12-07T10:09:11;6.40;99.90
8979;DHT22;4524;51.364;5.448;2022-12-07T10:12:03;6.50;99.90
8979;DHT22;4524;51.364;5.448;2022-12-07T10:14:33;6.60;99.90
8979;DHT22;4524;51.364;5.448;2022-12-07T10:17:31;6.60;99.90
8979;DHT22;4524;51.364;5.448;2022-12-07T10:20:18;6.50;99.90
8979;DHT22;4524;51.364;5.448;2022-12-07T10:23:02;6.50;99.90
8979;DHT22;4524;51.364;5.448;2022-12-07T10:25:34;6.50;99.90
8979;DHT22;4524;51.364;5.448;2022-12-07T10:28:10;6.50;99.90
8979;DHT22;4524;51.364;5.448;2022-12-07T10:30:48;6.60;99.90
8979;DHT22;4524;51.364;5.448;2022-12-07T10:33:37;6.70;99.90
8979;DHT22;4524;51.364;5.448;2022-12-07T10:36:23;6.70;99.90
8979;DHT22;4524;51.364;5.448;2022-12-07T10:38:53;6.70;99.90
8979;DHT22;4524;51.364;5.448;2022-12-07T10:41:27;6.80;99.90
8979;DHT22;4524;51.364;5.448;2022-12-07T10:43:57;6.90;99.90
8979;DHT22;4524;51.364;5.448;2022-12-07T10:46:54;7.10;99.90
8979;DHT22;4524;51.364;5.448;2022-12-07T10:52:45;7.40;99.90
8979;DHT22;4524;51.364;5.448;2022-12-07T10:55:20;7.50;99.90
8979;DHT22;4524;51.364;5.448;2022-12-07T10:58:12;7.40;99.90
8979;DHT22;4524;51.364;5.448;2022-12-07T11:00:50;7.40;99.90
8979;DHT22;4524;51.364;5.448;2022-12-07T11:03:38;7.30;99.90
8979;DHT22;4524;51.364;5.448;2022-12-07T11:06:17;7.30;99.90
8979;DHT22;4524;51.364;5.448;2022-12-07T11:09:00;7.30;99.90
8979;DHT22;4524;51.364;5.448;2022-12-07T11:11:33;7.20;99.90
8979;DHT22;4524;51.364;5.448;2022-12-07T11:14:12;7.20;99.90
8979;DHT22;4524;51.364;5.448;2022-12-07T11:16:51;7.20;99.90
8979;DHT22;4524;51.364;5.448;2022-12-07T11:19:43;7.20;99.90
8979;DHT22;4524;51.364;5.448;2022-12-07T11:22:22;7.20;99.90
8979;DHT22;4524;51.364;5.448;2022-12-07T11:24:57;7.30;99.90
8979;DHT22;4524;51.364;5.448;2022-12-07T11:27:35;7.30;99.90
8979;DHT22;4524;51.364;5.448;2022-12-07T11:30:16;7.50;99.90
8979;DHT22;4524;51.364;5.448;2022-12-07T11:33:00;7.80;99.90
8979;DHT22;4524;51.364;5.448;2022-12-07T11:35:38;7.90;99.90
8979;DHT22;4524;51.364;5.448;2022-12-07T11:38:12;8.00;99.90
8979;DHT22;4524;51.364;5.448;2022-12-07T11:40:45;8.10;99.90
8979;DHT22;4524;51.364;5.448;2022-12-07T11:43:20;8.10;99.90
8979;DHT22;4524;51.364;5.448;2022-12-07T11:45:56;8.20;99.90
8979;DHT22;4524;51.364;5.448;2022-12-07T11:48:31;8.30;99.90
8979;DHT22;4524;51.364;5.448;2022-12-07T11:51:02;8.30;99.90
8979;DHT22;4524;51.364;5.448;2022-12-07T11:53:36;8.30;99.90
8979;DHT22;4524;51.364;5.448;2022-12-07T11:56:10;8.40;99.90
8979;DHT22;4524;51.364;5.448;2022-12-07T11:58:50;8.40;99.90
8979;DHT22;4524;51.364;5.448;2022-12-07T12:01:41;8.40;99.90
8979;DHT22;4524;51.364;5.448;2022-12-07T12:04:30;8.40;99.90
8979;DHT22;4524;51.364;5.448;2022-12-07T12:07:00;8.50;99.90
8979;DHT22;4524;51.364;5.448;2022-12-07T12:09:52;8.40;99.90
8979;DHT22;4524;51.364;5.448;2022-12-07T12:12:33;8.30;99.90
8979;DHT22;4524;51.364;5.448;2022-12-07T12:15:37;8.30;99.90
8979;DHT22;4524;51.364;5.448;2022-12-07T12:21:04;8.10;99.90
8979;DHT22;4524;51.364;5.448;2022-12-07T12:23:39;8.00;99.90
8979;DHT22;4524;51.364;5.448;2022-12-07T12:26:16;7.80;99.90
8979;DHT22;4524;51.364;5.448;2022-12-07T12:28:52;7.70;99.90
8979;DHT22;4524;51.364;5.448;2022-12-07T12:31:34;7.80;99.90
8979;DHT22;4524;51.364;5.448;2022-12-07T12:34:32;7.70;99.90
8979;DHT22;4524;51.364;5.448;2022-12-07T12:37:00;7.80;99.90
8979;DHT22;4524;51.364;5.448;2022-12-07T12:39:29;7.70;99.90
8979;DHT22;4524;51.364;5.448;2022-12-07T12:41:59;7.60;99.90
8979;DHT22;4524;51.364;5.448;2022-12-07T12:47:43;7.50;99.90
8979;DHT22;4524;51.364;5.448;2022-12-07T12:50:23;7.50;99.90
8979;DHT22;4524;51.364;5.448;2022-12-07T12:53:14;7.40;99.90
8979;DHT22;4524;51.364;5.448;2022-12-07T12:58:39;7.50;99.90
8979;DHT22;4524;51.364;5.448;2022-12-07T13:01:40;7.60;99.90
8979;DHT22;4524;51.364;5.448;2022-12-07T13:04:21;7.70;99.90
8979;DHT22;4524;51.364;5.448;2022-12-07T13:06:52;7.60;99.90
8979;DHT22;4524;51.364;5.448;2022-12-07T13:09:23;7.60;99.90
8979;DHT22;4524;51.364;5.448;2022-12-07T13:12:00;7.70;99.90
8979;DHT22;4524;51.364;5.448;2022-12-07T13:14:53;7.70;99.90
8979;DHT22;4524;51.364;5.448;2022-12-07T13:17:58;7.80;99.90
8979;DHT22;4524;51.364;5.448;2022-12-07T13:20:52;7.90;99.90
8979;DHT22;4524;51.364;5.448;2022-12-07T13:23:29;7.90;99.90
8979;DHT22;4524;51.364;5.448;2022-12-07T13:26:04;7.90;99.90
8979;DHT22;4524;51.364;5.448;2022-12-07T13:28:45;7.90;99.90
8979;DHT22;4524;51.364;5.448;2022-12-07T13:31:20;8.00;99.90
8979;DHT22;4524;51.364;5.448;2022-12-07T13:33:50;7.90;99.90
8979;DHT22;4524;51.364;5.448;2022-12-07T13:36:21;7.90;99.90
8979;DHT22;4524;51.364;5.448;2022-12-07T13:38:53;7.90;99.90
8979;DHT22;4524;51.364;5.448;2022-12-07T13:41:23;7.90;99.90
8979;DHT22;4524;51.364;5.448;2022-12-07T13:43:55;7.90;99.90
8979;DHT22;4524;51.364;5.448;2022-12-07T13:46:32;7.90;99.90
8979;DHT22;4524;51.364;5.448;2022-12-07T13:49:01;7.70;99.90
8979;DHT22;4524;51.364;5.448;2022-12-07T13:51:34;7.60;99.90
8979;DHT22;4524;51.364;5.448;2022-12-07T13:54:11;7.50;99.90
8979;DHT22;4524;51.364;5.448;2022-12-07T13:56:40;7.40;99.90
8979;DHT22;4524;51.364;5.448;2022-12-07T13:59:13;7.50;99.90
8979;DHT22;4524;51.364;5.448;2022-12-07T14:01:42;7.60;99.90
8979;DHT22;4524;51.364;5.448;2022-12-07T14:04:17;7.60;99.90
8979;DHT22;4524;51.364;5.448;2022-12-07T14:06:50;7.60;99.90
8979;DHT22;4524;51.364;5.448;2022-12-07T14:09:21;7.60;99.90
8979;DHT22;4524;51.364;5.448;2022-12-07T14:11:50;7.50;99.90
8979;DHT22;4524;51.364;5.448;2022-12-07T14:14:22;7.50;99.90
8979;DHT22;4524;51.364;5.448;2022-12-07T14:17:01;7.40;99.90
8979;DHT22;4524;51.364;5.448;2022-12-07T14:19:50;7.40;99.90
8979;DHT22;4524;51.364;5.448;2022-12-07T14:22:27;7.40;99.90
8979;DHT22;4524;51.364;5.448;2022-12-07T14:25:09;7.30;99.90
8979;DHT22;4524;51.364;5.448;2022-12-07T14:27:46;7.20;99.90
8979;DHT22;4524;51.364;5.448;2022-12-07T14:30:16;7.20;99.90
8979;DHT22;4524;51.364;5.448;2022-12-07T14:32:52;7.30;99.90
8979;DHT22;4524;51.364;5.448;2022-12-07T14:35:21;7.30;99.90
8979;DHT22;4524;51.364;5.448;2022-12-07T14:37:49;7.50;99.90
8979;DHT22;4524;51.364;5.448;2022-12-07T14:40:20;7.50;99.90
8979;DHT22;4524;51.364;5.448;2022-12-07T14:42:51;7.50;99.90
8979;DHT22;4524;51.364;5.448;2022-12-07T14:45:21;7.50;99.90
8979;DHT22;4524;51.364;5.448;2022-12-07T14:47:50;7.40;99.90
8979;DHT22;4524;51.364;5.448;2022-12-07T14:50:40;7.50;99.90
8979;DHT22;4524;51.364;5.448;2022-12-07T14:53:30;7.40;99.90
8979;DHT22;4524;51.364;5.448;2022-12-07T14:56:00;7.40;99.90
8979;DHT22;4524;51.364;5.448;2022-12-07T14:58:28;7.40;99.90
8979;DHT22;4524;51.364;5.448;2022-12-07T15:00:56;7.40;99.90
8979;DHT22;4524;51.364;5.448;2022-12-07T15:03:24;7.40;99.90
8979;DHT22;4524;51.364;5.448;2022-12-07T15:05:52;7.30;99.90
8979;DHT22;4524;51.364;5.448;2022-12-07T15:08:20;7.30;99.90
8979;DHT22;4524;51.364;5.448;2022-12-07T15:10:49;7.30;99.90
8979;DHT22;4524;51.364;5.448;2022-12-07T15:13:18;7.30;99.90
8979;DHT22;4524;51.364;5.448;2022-12-07T15:16:07;7.20;99.90
8979;DHT22;4524;51.364;5.448;2022-12-07T15:18:36;7.10;99.90
8979;DHT22;4524;51.364;5.448;2022-12-07T15:21:04;7.10;99.90
8979;DHT22;4524;51.364;5.448;2022-12-07T15:23:32;7.00;99.90
8979;DHT22;4524;51.364;5.448;2022-12-07T15:25:59;6.90;99.90
8979;DHT22;4524;51.364;5.448;2022-12-07T15:28:29;6.90;99.90
8979;DHT22;4524;51.364;5.448;2022-12-07T15:30:57;6.80;99.90
8979;DHT22;4524;51.364;5.448;2022-12-07T15:33:45;6.80;99.90
8979;DHT22;4524;51.364;5.448;2022-12-07T15:36:18;6.70;99.90
8979;DHT22;4524;51.364;5.448;2022-12-07T15:38:47;6.60;99.90
8979;DHT22;4524;51.364;5.448;2022-12-07T15:41:35;6.50;99.90
8979;DHT22;4524;51.364;5.448;2022-12-07T15:44:05;6.50;99.90
8979;DHT22;4524;51.364;5.448;2022-12-07T15:46:56;6.40;99.90
8979;DHT22;4524;51.364;5.448;2022-12-07T15:49:25;6.30;99.90
8979;DHT22;4524;51.364;5.448;2022-12-07T15:51:54;6.40;99.90
8979;DHT22;4524;51.364;5.448;2022-12-07T15:54:23;6.30;99.90
8979;DHT22;4524;51.364;5.448;2022-12-07T15:56:52;6.40;99.90
8979;DHT22;4524;51.364;5.448;2022-12-07T15:59:22;6.40;99.90
8979;DHT22;4524;51.364;5.448;2022-12-07T16:01:50;6.40;99.90
8979;DHT22;4524;51.364;5.448;2022-12-07T16:04:18;6.40;99.90
8979;DHT22;4524;51.364;5.448;2022-12-07T16:06:46;6.50;99.90
8979;DHT22;4524;51.364;5.448;2022-12-07T16:09:14;6.50;99.90
8979;DHT22;4524;51.364;5.448;2022-12-07T16:11:42;6.50;99.90
8979;DHT22;4524;51.364;5.448;2022-12-07T16:14:10;6.50;99.90
8979;DHT22;4524;51.364;5.448;2022-12-07T16:16:39;6.50;99.90
8979;DHT22;4524;51.364;5.448;2022-12-07T16:19:08;6.60;99.90
8979;DHT22;4524;51.364;5.448;2022-12-07T16:21:37;6.60;99.90
8979;DHT22;4524;51.364;5.448;2022-12-07T16:24:06;6.60;99.90
8979;DHT22;4524;51.364;5.448;2022-12-07T16:26:34;6.60;99.90
8979;DHT22;4524;51.364;5.448;2022-12-07T16:29:02;6.60;99.90
8979;DHT22;4524;51.364;5.448;2022-12-07T16:31:30;6.70;99.90
8979;DHT22;4524;51.364;5.448;2022-12-07T16:33:59;6.60;99.90
8979;DHT22;4524;51.364;5.448;2022-12-07T16:36:27;6.60;99.90
8979;DHT22;4524;51.364;5.448;2022-12-07T16:39:15;6.60;99.90
8979;DHT22;4524;51.364;5.448;2022-12-07T16:41:44;6.60;99.90
8979;DHT22;4524;51.364;5.448;2022-12-07T16:44:12;6.60;99.90
8979;DHT22;4524;51.364;5.448;2022-12-07T16:46:41;6.50;99.90
8979;DHT22;4524;51.364;5.448;2022-12-07T16:49:12;6.50;99.90
8979;DHT22;4524;51.364;5.448;2022-12-07T16:51:40;6.60;99.90
8979;DHT22;4524;51.364;5.448;2022-12-07T16:54:10;6.60;99.90
8979;DHT22;4524;51.364;5.448;2022-12-07T16:56:38;6.60;99.90
8979;DHT22;4524;51.364;5.448;2022-12-07T16:59:06;6.60;99.90
8979;DHT22;4524;51.364;5.448;2022-12-07T17:01:34;6.50;99.90
8979;DHT22;4524;51.364;5.448;2022-12-07T17:04:02;6.50;99.90
8979;DHT22;4524;51.364;5.448;2022-12-07T17:06:32;6.50;99.90
8979;DHT22;4524;51.364;5.448;2022-12-07T17:09:01;6.50;99.90
8979;DHT22;4524;51.364;5.448;2022-12-07T17:11:30;6.50;99.90